Inongo Airport


Codes: FZBA/INO
Name: Inongo Airport
City: Inongo
Country: Congo [DRC]
Elevation: 1040 ft.

Photos at Inongo Airport


   Photos courtesy of SpottingLog. You can add your own sightings and photos by signing up for a free trial today.



No photos found.

Weather at Inongo Airport


Time (UTC)DescriptionTempratureWindCloud coverageVisibilityPressureHumidity
13-Jun-2024 03:00Few Clouds21°C4 mph, SE23%10000m1012hPa67%
13-Jun-2024 06:00Scattered Clouds21°C2 mph, SE39%10000m1013hPa68%
13-Jun-2024 09:00Broken Clouds25°C0 mph, E63%10000m1014hPa58%
13-Jun-2024 12:00Scattered Clouds26°C2 mph, W43%10000m1010hPa55%
13-Jun-2024 15:00Few Clouds28°C2 mph, NW24%10000m1008hPa51%
13-Jun-2024 18:00Scattered Clouds26°C2 mph, NW44%10000m1009hPa57%
13-Jun-2024 21:00Scattered Clouds24°C2 mph, NE44%10000m1011hPa62%
14-Jun-2024 00:00Scattered Clouds23°C2 mph, NE30%10000m1010hPa66%
14-Jun-2024 03:00Few Clouds22°C4 mph, NW21%10000m1010hPa70%
14-Jun-2024 06:00Few Clouds22°C2 mph, NW20%10000m1012hPa72%
14-Jun-2024 09:00Few Clouds26°C2 mph, SE17%10000m1013hPa60%
14-Jun-2024 12:00Scattered Clouds26°C2 mph, SE27%7611m1010hPa59%
14-Jun-2024 15:00Light Rain27°C2 mph, E67%10000m1008hPa54%
14-Jun-2024 18:00Scattered Clouds25°C2 mph, E43%10000m1009hPa60%
14-Jun-2024 21:00Few Clouds23°C2 mph, NW14%10000m1009hPa73%
15-Jun-2024 00:00Few Clouds22°C2 mph, NW13%10000m1008hPa74%
15-Jun-2024 03:00Few Clouds21°C2 mph, NW12%10000m1008hPa77%
15-Jun-2024 06:00Scattered Clouds22°C4 mph, W47%10000m1010hPa73%
15-Jun-2024 09:00Scattered Clouds26°C2 mph, W25%10000m1011hPa58%
15-Jun-2024 12:00Few Clouds28°C4 mph, E19%10000m1008hPa55%
15-Jun-2024 15:00Few Clouds27°C0 mph, SE24%10000m1006hPa55%
15-Jun-2024 18:00Few Clouds25°C2 mph, W16%10000m1007hPa57%
15-Jun-2024 21:00Broken Clouds25°C4 mph, NW62%10000m1009hPa64%
16-Jun-2024 00:00Light Rain22°C7 mph, NW47%10000m1009hPa77%
16-Jun-2024 03:00Broken Clouds22°C4 mph, NW79%10000m1009hPa82%
16-Jun-2024 06:00Light Rain21°C4 mph, NW88%10000m1011hPa90%
16-Jun-2024 09:00Light Rain24°C4 mph, N100%7926m1012hPa80%
16-Jun-2024 12:00Overcast Clouds26°C7 mph, N97%7525m1009hPa66%
16-Jun-2024 15:00Light Rain26°C7 mph, N91%10000m1008hPa68%
16-Jun-2024 18:00Broken Clouds24°C7 mph, N72%10000m1009hPa78%
16-Jun-2024 21:00Broken Clouds22°C4 mph, NW62%10000m1010hPa86%
17-Jun-2024 00:00Scattered Clouds21°C4 mph, N48%10000m1010hPa91%
17-Jun-2024 03:00Overcast Clouds21°C4 mph, NW89%10000m1011hPa92%
17-Jun-2024 06:00Broken Clouds22°C4 mph, NW84%10000m1012hPa89%
17-Jun-2024 09:00Scattered Clouds25°C4 mph, NW38%10000m1012hPa72%
17-Jun-2024 12:00Light Rain27°C4 mph, E51%7532m1009hPa61%
17-Jun-2024 15:00Broken Clouds27°C0 mph, E59%10000m1008hPa61%
17-Jun-2024 18:00Light Rain25°C2 mph, NW42%10000m1010hPa70%
17-Jun-2024 21:00Few Clouds23°C2 mph, NE24%10000m1011hPa79%
18-Jun-2024 00:00Few Clouds22°C4 mph, NW18%10000m1010hPa85%